VIA022 SVMG-SVMI
Flight info
| Callsign | VIA022 |
|---|---|
| Flight time | 0h 40m |
| Altitude | 26000 |
| Route | ESPEP SARNI A561 CBC NETSI1 |
| Aircraft | A346/H-SDE2E3FGHIJ3J4J5M1RWXY/LB1D1 |
Departure
| Time | 2026-05-09 15:33 |
|---|---|
| Airport | Del Caribe Santiago Mariño International Airport (SVMG) |
Arrival
| Time | 2026-05-09 16:14 |
|---|---|
| Airport | Maiquetía Simón Bolívar International Airport (SVMI) |
| Time | Latitude | Longitude | Altitude | Speed | Heading |
|---|---|---|---|---|---|
| 2026-05-09 15:33 | 10.77911 | -64.05335 | 7828 ft | 284 kts | 237° |
| 2026-05-09 15:33 | 10.76886 | -64.07067 | 8314 ft | 287 kts | 245° |
| 2026-05-09 15:34 | 10.76415 | -64.09039 | 8812 ft | 288 kts | 265° |
| 2026-05-09 15:34 | 10.76340 | -64.10388 | 9144 ft | 289 kts | 269° |
| 2026-05-09 15:34 | 10.76300 | -64.12461 | 9685 ft | 298 kts | 270° |
| 2026-05-09 15:34 | 10.76254 | -64.14605 | 10263 ft | 307 kts | 269° |
| 2026-05-09 15:35 | 10.76176 | -64.16834 | 10756 ft | 322 kts | 268° |
| 2026-05-09 15:35 | 10.76070 | -64.19170 | 11127 ft | 339 kts | 267° |
| 2026-05-09 15:35 | 10.75942 | -64.21628 | 11491 ft | 356 kts | 266° |
| 2026-05-09 15:35 | 10.75797 | -64.24212 | 11826 ft | 373 kts | 266° |
| 2026-05-09 15:36 | 10.75641 | -64.26912 | 12135 ft | 391 kts | 266° |
| 2026-05-09 15:36 | 10.75478 | -64.29728 | 12625 ft | 401 kts | 266° |
| 2026-05-09 15:36 | 10.75317 | -64.32572 | 13346 ft | 404 kts | 266° |
| 2026-05-09 15:36 | 10.75153 | -64.35439 | 14105 ft | 406 kts | 266° |
| 2026-05-09 15:37 | 10.74993 | -64.38283 | 14741 ft | 409 kts | 266° |
| 2026-05-09 15:37 | 10.74827 | -64.41192 | 15305 ft | 414 kts | 266° |
| 2026-05-09 15:37 | 10.74656 | -64.44147 | 15870 ft | 420 kts | 266° |
| 2026-05-09 15:37 | 10.74478 | -64.47132 | 16446 ft | 424 kts | 266° |
| 2026-05-09 15:38 | 10.74300 | -64.50152 | 17047 ft | 428 kts | 266° |
| 2026-05-09 15:38 | 10.74124 | -64.53187 | 17634 ft | 431 kts | 266° |
| 2026-05-09 15:38 | 10.73946 | -64.56264 | 18146 ft | 437 kts | 266° |
| 2026-05-09 15:38 | 10.73764 | -64.59372 | 18605 ft | 442 kts | 266° |
| 2026-05-09 15:39 | 10.73503 | -64.62500 | 19070 ft | 445 kts | 263° |
| 2026-05-09 15:39 | 10.73135 | -64.65594 | 19538 ft | 449 kts | 263° |
| 2026-05-09 15:39 | 10.72740 | -64.68765 | 19984 ft | 453 kts | 263° |
| 2026-05-09 15:39 | 10.72336 | -64.71963 | 20429 ft | 457 kts | 263° |
| 2026-05-09 15:40 | 10.71929 | -64.75190 | 20855 ft | 462 kts | 263° |
| 2026-05-09 15:40 | 10.71521 | -64.78423 | 21268 ft | 466 kts | 263° |
| 2026-05-09 15:40 | 10.71105 | -64.81720 | 21692 ft | 471 kts | 263° |
| 2026-05-09 15:40 | 10.70687 | -64.85039 | 22182 ft | 473 kts | 263° |
| 2026-05-09 15:41 | 10.70273 | -64.88317 | 22774 ft | 472 kts | 263° |
| 2026-05-09 15:41 | 10.69854 | -64.91639 | 23370 ft | 472 kts | 264° |
| 2026-05-09 15:41 | 10.69435 | -64.94962 | 23894 ft | 472 kts | 264° |
| 2026-05-09 15:41 | 10.69017 | -64.98274 | 24420 ft | 471 kts | 264° |
| 2026-05-09 15:42 | 10.68601 | -65.01567 | 24933 ft | 470 kts | 264° |
| 2026-05-09 15:42 | 10.68183 | -65.04872 | 25448 ft | 470 kts | 264° |
| 2026-05-09 15:42 | 10.67764 | -65.08174 | 25853 ft | 471 kts | 264° |
| 2026-05-09 15:42 | 10.67344 | -65.11490 | 26009 ft | 472 kts | 264° |
| 2026-05-09 15:43 | 10.66935 | -65.14811 | 26010 ft | 472 kts | 265° |
| 2026-05-09 15:43 | 10.66577 | -65.18137 | 26007 ft | 472 kts | 265° |
| 2026-05-09 15:43 | 10.66237 | -65.21460 | 26010 ft | 472 kts | 266° |
| 2026-05-09 15:43 | 10.65899 | -65.24784 | 26015 ft | 472 kts | 265° |
| 2026-05-09 15:44 | 10.65557 | -65.28109 | 26008 ft | 472 kts | 265° |
| 2026-05-09 15:44 | 10.65212 | -65.31433 | 26005 ft | 472 kts | 265° |
| 2026-05-09 15:44 | 10.64866 | -65.34749 | 26005 ft | 472 kts | 265° |
| 2026-05-09 15:44 | 10.64517 | -65.38074 | 26006 ft | 472 kts | 265° |
| 2026-05-09 15:45 | 10.64171 | -65.41352 | 26014 ft | 472 kts | 265° |
| 2026-05-09 15:45 | 10.63820 | -65.44676 | 26018 ft | 472 kts | 265° |
| 2026-05-09 15:45 | 10.63467 | -65.48010 | 26009 ft | 472 kts | 265° |
| 2026-05-09 15:45 | 10.63115 | -65.51337 | 26018 ft | 472 kts | 265° |
| 2026-05-09 15:46 | 10.62762 | -65.54663 | 26013 ft | 472 kts | 265° |
| 2026-05-09 15:46 | 10.62408 | -65.57991 | 26009 ft | 472 kts | 265° |
| 2026-05-09 15:46 | 10.62055 | -65.61313 | 26017 ft | 472 kts | 265° |
| 2026-05-09 15:46 | 10.61703 | -65.64639 | 26020 ft | 472 kts | 265° |
| 2026-05-09 15:47 | 10.61375 | -65.67966 | 26036 ft | 471 kts | 267° |
| 2026-05-09 15:47 | 10.61141 | -65.71293 | 26036 ft | 472 kts | 265° |
| 2026-05-09 15:47 | 10.60769 | -65.74614 | 26028 ft | 472 kts | 264° |
| 2026-05-09 15:47 | 10.60360 | -65.77934 | 26022 ft | 472 kts | 264° |
| 2026-05-09 15:48 | 10.59970 | -65.81173 | 26017 ft | 472 kts | 264° |
| 2026-05-09 15:48 | 10.59588 | -65.84498 | 26023 ft | 472 kts | 264° |
| 2026-05-09 15:48 | 10.59223 | -65.87787 | 26016 ft | 472 kts | 265° |
| 2026-05-09 15:48 | 10.58863 | -65.91109 | 25989 ft | 472 kts | 265° |
| 2026-05-09 15:49 | 10.58505 | -65.94438 | 25503 ft | 473 kts | 265° |
| 2026-05-09 15:49 | 10.58149 | -65.97765 | 24923 ft | 472 kts | 265° |
| 2026-05-09 15:49 | 10.57812 | -66.01080 | 24369 ft | 471 kts | 267° |
| 2026-05-09 15:49 | 10.58031 | -66.04388 | 23792 ft | 466 kts | 284° |
| 2026-05-09 15:50 | 10.59133 | -66.07476 | 23183 ft | 464 kts | 301° |
| 2026-05-09 15:50 | 10.60915 | -66.10208 | 22563 ft | 463 kts | 308° |
| 2026-05-09 15:50 | 10.62835 | -66.12838 | 21932 ft | 463 kts | 309° |
| 2026-05-09 15:50 | 10.64760 | -66.15457 | 21327 ft | 461 kts | 308° |
| 2026-05-09 15:51 | 10.66665 | -66.18080 | 20735 ft | 458 kts | 308° |
| 2026-05-09 15:51 | 10.68541 | -66.20696 | 20137 ft | 455 kts | 307° |
| 2026-05-09 15:51 | 10.70393 | -66.23299 | 19552 ft | 452 kts | 307° |
| 2026-05-09 15:51 | 10.72210 | -66.25861 | 18994 ft | 450 kts | 307° |
| 2026-05-09 15:52 | 10.75858 | -66.30987 | 17832 ft | 444 kts | 307° |
| 2026-05-09 15:52 | 10.77661 | -66.33517 | 17058 ft | 435 kts | 307° |
| 2026-05-09 15:52 | 10.79392 | -66.35958 | 16527 ft | 414 kts | 305° |
| 2026-05-09 15:53 | 10.80671 | -66.38500 | 15997 ft | 396 kts | 287° |
| 2026-05-09 15:53 | 10.81123 | -66.41201 | 15521 ft | 379 kts | 270° |
| 2026-05-09 15:53 | 10.80873 | -66.43810 | 15059 ft | 364 kts | 259° |
| 2026-05-09 15:53 | 10.80431 | -66.46300 | 14585 ft | 351 kts | 258° |
| 2026-05-09 15:54 | 10.79983 | -66.48706 | 14129 ft | 340 kts | 258° |
| 2026-05-09 15:54 | 10.79557 | -66.51036 | 13660 ft | 330 kts | 259° |
| 2026-05-09 15:54 | 10.79151 | -66.53301 | 13148 ft | 320 kts | 259° |
| 2026-05-09 15:54 | 10.78762 | -66.55506 | 12631 ft | 312 kts | 259° |
| 2026-05-09 15:55 | 10.78387 | -66.57658 | 12135 ft | 306 kts | 259° |
| 2026-05-09 15:55 | 10.78017 | -66.59778 | 11648 ft | 302 kts | 259° |
| 2026-05-09 15:55 | 10.77656 | -66.61855 | 11170 ft | 301 kts | 259° |
| 2026-05-09 15:55 | 10.77294 | -66.63940 | 10693 ft | 297 kts | 259° |
| 2026-05-09 15:56 | 10.76935 | -66.66014 | 10221 ft | 298 kts | 259° |
| 2026-05-09 15:56 | 10.76574 | -66.68100 | 9749 ft | 297 kts | 260° |
| 2026-05-09 15:56 | 10.76215 | -66.70172 | 9379 ft | 298 kts | 260° |
| 2026-05-09 15:56 | 10.75855 | -66.72246 | 9004 ft | 295 kts | 260° |
| 2026-05-09 15:57 | 10.75500 | -66.74298 | 8631 ft | 292 kts | 259° |
| 2026-05-09 15:57 | 10.75148 | -66.76320 | 8251 ft | 287 kts | 260° |
| 2026-05-09 15:57 | 10.74802 | -66.78314 | 7883 ft | 285 kts | 259° |
| 2026-05-09 15:57 | 10.74458 | -66.80294 | 7517 ft | 283 kts | 259° |
| 2026-05-09 15:58 | 10.74114 | -66.82273 | 7196 ft | 283 kts | 259° |
| 2026-05-09 15:58 | 10.73772 | -66.84239 | 6921 ft | 280 kts | 260° |
| 2026-05-09 15:58 | 10.73435 | -66.86177 | 6694 ft | 276 kts | 259° |
| 2026-05-09 15:58 | 10.73105 | -66.88085 | 6467 ft | 272 kts | 261° |
| 2026-05-09 15:59 | 10.72865 | -66.89978 | 6214 ft | 267 kts | 264° |
| 2026-05-09 15:59 | 10.72760 | -66.91829 | 5964 ft | 263 kts | 268° |
| 2026-05-09 15:59 | 10.72748 | -66.93686 | 5727 ft | 260 kts | 269° |
| 2026-05-09 15:59 | 10.72748 | -66.95525 | 5477 ft | 260 kts | 269° |
| 2026-05-09 16:00 | 10.72748 | -66.97372 | 5212 ft | 261 kts | 269° |
| 2026-05-09 16:00 | 10.72748 | -66.98001 | 5133 ft | 261 kts | 269° |
| 2026-05-09 16:00 | 10.72742 | -67.01057 | 4734 ft | 258 kts | 269° |
| 2026-05-09 16:00 | 10.72739 | -67.02879 | 4475 ft | 257 kts | 269° |
| 2026-05-09 16:01 | 10.72735 | -67.04699 | 4227 ft | 256 kts | 270° |
| 2026-05-09 16:01 | 10.72731 | -67.06505 | 4039 ft | 253 kts | 270° |
| 2026-05-09 16:01 | 10.72728 | -67.08313 | 3998 ft | 257 kts | 270° |
| 2026-05-09 16:01 | 10.72724 | -67.10137 | 3988 ft | 259 kts | 270° |
| 2026-05-09 16:02 | 10.72720 | -67.11964 | 3988 ft | 257 kts | 270° |
| 2026-05-09 16:02 | 10.72712 | -67.15600 | 3998 ft | 259 kts | 269° |
| 2026-05-09 16:02 | 10.72709 | -67.17440 | 3998 ft | 260 kts | 269° |
| 2026-05-09 16:03 | 10.72704 | -67.19274 | 3992 ft | 258 kts | 269° |
| 2026-05-09 16:03 | 10.72699 | -67.21108 | 3992 ft | 260 kts | 270° |
| 2026-05-09 16:03 | 10.72706 | -67.22942 | 3982 ft | 256 kts | 270° |
| 2026-05-09 16:03 | 10.72718 | -67.24742 | 3982 ft | 252 kts | 270° |
| 2026-05-09 16:04 | 10.72730 | -67.26525 | 3979 ft | 252 kts | 270° |
| 2026-05-09 16:04 | 10.72740 | -67.28312 | 3983 ft | 252 kts | 270° |
| 2026-05-09 16:04 | 10.72752 | -67.30081 | 3982 ft | 252 kts | 270° |
| 2026-05-09 16:04 | 10.72600 | -67.31851 | 3971 ft | 247 kts | 250° |
| 2026-05-09 16:05 | 10.71768 | -67.33296 | 3969 ft | 229 kts | 224° |
| 2026-05-09 16:05 | 10.70496 | -67.34178 | 3971 ft | 217 kts | 199° |
| 2026-05-09 16:05 | 10.69027 | -67.34460 | 3980 ft | 215 kts | 176° |
| 2026-05-09 16:05 | 10.67587 | -67.34143 | 3978 ft | 207 kts | 154° |
| 2026-05-09 16:06 | 10.66436 | -67.33342 | 3976 ft | 198 kts | 133° |
| 2026-05-09 16:06 | 10.65607 | -67.32222 | 4040 ft | 199 kts | 125° |
| 2026-05-09 16:06 | 10.64735 | -67.31135 | 4027 ft | 198 kts | 133° |
| 2026-05-09 16:06 | 10.63787 | -67.30124 | 3992 ft | 193 kts | 134° |
| 2026-05-09 16:07 | 10.62877 | -67.29193 | 3969 ft | 177 kts | 136° |
| 2026-05-09 16:07 | 10.62017 | -67.28336 | 3970 ft | 172 kts | 136° |
| 2026-05-09 16:07 | 10.61173 | -67.27506 | 3983 ft | 171 kts | 136° |
| 2026-05-09 16:07 | 10.60328 | -67.26636 | 3982 ft | 171 kts | 121° |
| 2026-05-09 16:08 | 10.59861 | -67.25530 | 3996 ft | 171 kts | 104° |
| 2026-05-09 16:08 | 10.59694 | -67.24378 | 3987 ft | 164 kts | 95° |
| 2026-05-09 16:08 | 10.59669 | -67.23216 | 3993 ft | 164 kts | 90° |
| 2026-05-09 16:08 | 10.59697 | -67.22060 | 3998 ft | 163 kts | 89° |
| 2026-05-09 16:09 | 10.59737 | -67.20907 | 3911 ft | 161 kts | 89° |
| 2026-05-09 16:09 | 10.59777 | -67.19775 | 3734 ft | 160 kts | 88° |
| 2026-05-09 16:09 | 10.59817 | -67.18648 | 3535 ft | 158 kts | 88° |
| 2026-05-09 16:09 | 10.59856 | -67.17529 | 3340 ft | 159 kts | 88° |
| 2026-05-09 16:10 | 10.59893 | -67.16411 | 3136 ft | 157 kts | 88° |
| 2026-05-09 16:10 | 10.59929 | -67.15303 | 2921 ft | 155 kts | 88° |
| 2026-05-09 16:10 | 10.59964 | -67.14208 | 2715 ft | 156 kts | 88° |
| 2026-05-09 16:10 | 10.59999 | -67.13097 | 2493 ft | 156 kts | 88° |
| 2026-05-09 16:11 | 10.60035 | -67.11990 | 2279 ft | 156 kts | 88° |
| 2026-05-09 16:11 | 10.60071 | -67.10903 | 2065 ft | 155 kts | 88° |
| 2026-05-09 16:11 | 10.60106 | -67.09806 | 1857 ft | 155 kts | 87° |
| 2026-05-09 16:11 | 10.60141 | -67.08718 | 1654 ft | 154 kts | 87° |
| 2026-05-09 16:12 | 10.60175 | -67.07627 | 1441 ft | 153 kts | 87° |
| 2026-05-09 16:12 | 10.60209 | -67.06541 | 1251 ft | 154 kts | 87° |
| 2026-05-09 16:12 | 10.60243 | -67.05457 | 1057 ft | 152 kts | 88° |
| 2026-05-09 16:12 | 10.60279 | -67.04392 | 864 ft | 147 kts | 86° |
| 2026-05-09 16:13 | 10.60309 | -67.03372 | 650 ft | 141 kts | 85° |
| 2026-05-09 16:13 | 10.60341 | -67.02379 | 502 ft | 138 kts | 90° |
| 2026-05-09 16:13 | 10.60373 | -67.01417 | 332 ft | 135 kts | 89° |
| 2026-05-09 16:13 | 10.60403 | -67.00476 | 237 ft | 120 kts | 87° |
| 2026-05-09 16:14 | 10.60427 | -66.99823 | 230 ft | 68 kts | 88° |
| 2026-05-09 16:14 | 10.60436 | -66.99527 | 221 ft | 17 kts | 88° |
| 2026-05-09 16:14 | 10.60437 | -66.99484 | 219 ft | 19 kts | 88° |
| 2026-05-09 16:14 | 10.60441 | -66.99303 | 208 ft | 27 kts | 89° |
| 2026-05-09 16:15 | 10.60444 | -66.99167 | 206 ft | 14 kts | 115° |
| 2026-05-09 16:15 | 10.60333 | -66.99121 | 201 ft | 22 kts | 190° |
| 2026-05-09 16:15 | 10.60273 | -66.99258 | 196 ft | 24 kts | 270° |
| 2026-05-09 16:15 | 10.60270 | -66.99422 | 206 ft | 23 kts | 268° |
| 2026-05-09 16:16 | 10.60266 | -66.99544 | 218 ft | 0 kts | 268° |
| 2026-05-09 16:16 | 10.60266 | -66.99546 | 218 ft | 1 kts | 268° |
| 2026-05-09 16:16 | 10.60264 | -66.99580 | 218 ft | 8 kts | 268° |
| 2026-05-09 16:16 | 10.60259 | -66.99669 | 213 ft | 17 kts | 267° |
| 2026-05-09 16:17 | 10.60257 | -66.99733 | 221 ft | 0 kts | 268° |
| 2026-05-09 16:17 | 10.60255 | -66.99814 | 225 ft | 26 kts | 269° |
| 2026-05-09 16:17 | 10.60251 | -67.00000 | 232 ft | 27 kts | 269° |
| 2026-05-09 16:18 | 10.60247 | -67.00176 | 227 ft | 18 kts | 269° |
| 2026-05-09 16:18 | 10.60218 | -67.00283 | 233 ft | 13 kts | 210° |
| 2026-05-09 16:18 | 10.60115 | -67.00297 | 233 ft | 17 kts | 179° |
| 2026-05-09 16:18 | 10.60017 | -67.00326 | 236 ft | 21 kts | 238° |
| 2026-05-09 16:19 | 10.59998 | -67.00490 | 236 ft | 21 kts | 268° |
| 2026-05-09 16:19 | 10.59992 | -67.00643 | 239 ft | 10 kts | 268° |
| 2026-05-09 16:19 | 10.59992 | -67.00645 | 239 ft | 0 kts | 267° |
| 2026-05-09 16:19 | 10.59991 | -67.00650 | 239 ft | 3 kts | 249° |
| 2026-05-09 16:20 | 10.59953 | -67.00671 | 240 ft | 11 kts | 195° |
| 2026-05-09 16:20 | 10.59899 | -67.00676 | 240 ft | 9 kts | 179° |
| 2026-05-09 16:20 | 10.59845 | -67.00674 | 240 ft | 3 kts | 176° |
| 2026-05-09 16:20 | 10.59837 | -67.00674 | 240 ft | 1 kts | 178° |
| 2026-05-09 16:21 | 10.59833 | -67.00674 | 240 ft | 0 kts | 180° |